Time;durP1;ratioP1;P1;durP2;ratioP2;P2;SDS_P1;SDS_P2;PMS_P1;PMS_P2;Temp;Humidity;BMP_temperature;BMP_pressure;BME280_temperature;BME280_humidity;BME280_pressure;Samples;Min_cycle;Max_cycle;Signal;HPM_P1;HPM_P2
2022/08/08 00:00:12;;;;;;;3.65;2.90;;;;;;;20.17;86.16;100718.61;1625771;88;21147;-63
2022/08/08 00:02:56;;;;;;;4.55;3.15;;;;;;;20.19;85.88;100727.55;1675255;84;21091;-63
2022/08/08 00:05:31;;;;;;;3.15;2.55;;;;;;;20.17;85.67;100733.36;1667815;85;21005;-62
2022/08/08 00:08:30;;;;;;;5.33;3.52;;;;;;;20.14;85.46;100734.38;1674332;85;21005;-63
2022/08/08 00:11:24;;;;;;;6.22;3.33;;;;;;;20.09;85.63;100737.08;1673582;85;21130;-62
2022/08/08 00:14:28;;;;;;;4.75;3.75;;;;;;;20.04;85.79;100741.16;1719447;83;21086;-63
2022/08/08 00:17:19;;;;;;;4.80;3.70;;;;;;;20.00;86.20;100746.39;1693559;83;21041;-63
2022/08/08 00:20:06;;;;;;;4.92;3.60;;;;;;;19.99;86.37;100744.70;1671309;84;21092;-62
2022/08/08 00:22:50;;;;;;;5.00;3.60;;;;;;;19.99;86.37;100742.47;1653163;85;21066;-62
2022/08/08 00:25:28;;;;;;;5.65;3.55;;;;;;;19.98;86.17;100746.34;1662740;85;21082;-61
2022/08/08 00:27:59;;;;;;;6.78;3.50;;;;;;;19.95;86.34;100742.97;1673337;85;21051;-62
2022/08/08 00:30:35;;;;;;;4.92;3.87;;;;;;;19.93;86.29;100745.70;1683858;84;21026;-63
2022/08/08 00:33:14;;;;;;;5.22;3.52;;;;;;;19.91;86.51;100738.16;1708727;83;21017;-63
2022/08/08 00:36:10;;;;;;;4.10;3.70;;;;;;;19.90;86.54;100733.70;1711347;83;21035;-63
2022/08/08 00:39:10;;;;;;;4.10;3.47;;;;;;;19.90;86.85;100735.93;1711874;83;21082;-63
2022/08/08 00:42:21;;;;;;;4.80;3.92;;;;;;;19.92;86.78;100735.68;1713560;83;21104;-63
2022/08/08 00:45:37;;;;;;;5.28;3.62;;;;;;;19.89;86.82;100735.63;1647880;86;21019;-63
2022/08/08 00:48:16;;;;;;;4.90;3.90;;;;;;;19.90;87.01;100733.70;1700526;83;21025;-62
2022/08/08 00:51:09;;;;;;;4.45;3.98;;;;;;;19.92;86.99;100730.11;1696217;83;21031;-62
2022/08/08 00:54:18;;;;;;;7.45;4.12;;;;;;;19.90;86.84;100735.93;1698722;83;21032;-63
2022/08/08 00:57:13;;;;;;;4.53;3.80;;;;;;;19.88;86.82;100732.55;1722909;83;21447;-63
2022/08/08 01:00:09;;;;;;;4.28;3.80;;;;;;;19.87;86.74;100737.82;1683034;83;21064;-63
2022/08/08 01:03:11;;;;;;;4.92;3.60;;;;;;;19.85;86.85;100733.06;1706528;83;21013;-64
2022/08/08 01:06:39;;;;;;;5.47;4.12;;;;;;;19.88;86.82;100738.66;1695992;83;21587;-62
2022/08/08 01:09:44;;;;;;;4.87;4.08;;;;;;;19.86;86.77;100738.91;1709957;83;21030;-62
2022/08/08 01:12:35;;;;;;;4.87;3.90;;;;;;;19.83;86.69;100738.02;1711223;83;21045;-63
2022/08/08 01:15:51;;;;;;;4.85;3.90;;;;;;;19.79;86.78;100734.06;1705213;83;21009;-63
2022/08/08 01:18:44;;;;;;;4.80;3.85;;;;;;;19.76;86.99;100730.39;1718475;83;21117;-64
2022/08/08 01:21:50;;;;;;;5.47;3.75;;;;;;;19.75;86.98;100729.25;1702175;83;21023;-63
2022/08/08 01:24:39;;;;;;;4.10;3.50;;;;;;;19.69;87.06;100728.31;1709866;83;21038;-62
2022/08/08 01:28:03;;;;;;;5.40;3.45;;;;;;;19.68;87.14;100728.56;1725443;83;21063;-63
2022/08/08 01:31:30;;;;;;;5.37;3.45;;;;;;;19.68;87.17;100723.84;1681460;83;21056;-61
2022/08/08 01:34:20;;;;;;;5.22;3.60;;;;;;;19.67;87.18;100719.38;1702964;83;21024;-62
2022/08/08 01:37:17;;;;;;;4.12;3.58;;;;;;;19.70;87.14;100719.42;1710965;82;21031;-63
2022/08/08 01:40:11;;;;;;;4.40;3.62;;;;;;;19.72;87.09;100725.58;1705529;83;21092;-62
2022/08/08 01:42:54;;;;;;;5.85;3.60;;;;;;;19.73;87.02;100728.11;1694711;83;21429;-63
2022/08/08 01:45:46;;;;;;;4.80;3.42;;;;;;;19.77;86.92;100727.06;1692290;85;21051;-62
2022/08/08 01:48:57;;;;;;;3.65;3.27;;;;;;;19.79;86.62;100731.28;1693155;84;21425;-62
2022/08/08 01:51:50;;;;;;;4.20;3.12;;;;;;;19.74;86.44;100731.19;1667609;84;21096;-62
2022/08/08 01:55:01;;;;;;;5.20;3.55;;;;;;;19.73;86.56;100734.22;1689711;84;21017;-63
2022/08/08 01:58:27;;;;;;;4.95;3.27;;;;;;;19.71;86.55;100737.25;1688224;84;21538;-61
2022/08/08 02:01:16;;;;;;;4.78;3.27;;;;;;;19.73;86.66;100733.67;1693688;84;21111;-63
2022/08/08 02:04:20;;;;;;;4.58;3.20;;;;;;;19.77;86.59;100736.25;1693990;84;21045;-62
2022/08/08 02:07:26;;;;;;;3.95;3.20;;;;;;;19.79;86.36;100733.22;1693788;84;21041;-62
2022/08/08 02:10:08;;;;;;;4.85;3.42;;;;;;;19.79;86.33;100733.22;1691784;84;20977;-62
2022/08/08 02:12:56;;;;;;;4.70;3.12;;;;;;;19.78;86.27;100738.48;1691171;84;21032;-62
2022/08/08 02:16:03;;;;;;;6.78;3.35;;;;;;;19.78;86.18;100738.48;1693046;84;21020;-62
2022/08/08 02:18:42;;;;;;;4.62;3.47;;;;;;;19.78;86.21;100742.11;1681998;84;21076;-63
2022/08/08 02:24:19;;;;;;;5.35;4.20;;;;;;;19.73;86.24;100739.78;1693259;85;21001;-63
2022/08/08 02:27:20;;;;;;;8.83;4.25;;;;;;;19.69;86.49;100733.88;1693947;84;21027;-64
2022/08/08 02:30:07;;;;;;;7.35;4.42;;;;;;;19.66;86.61;100739.94;1695642;84;21021;-63
2022/08/08 02:32:48;;;;;;;7.20;4.30;;;;;;;19.70;86.75;100741.67;1678207;84;21035;-62
2022/08/08 02:35:47;;;;;;;6.72;3.40;;;;;;;19.70;86.59;100736.11;1692039;84;21475;-62
2022/08/08 02:38:33;;;;;;;4.92;3.40;;;;;;;19.70;86.51;100736.11;1689897;84;21033;-62
2022/08/08 02:41:45;;;;;;;7.08;3.70;;;;;;;19.70;86.26;100736.95;1693135;84;21044;-62
2022/08/08 02:45:12;;;;;;;7.47;3.65;;;;;;;19.73;86.30;100745.34;1689733;84;21020;-63
2022/08/08 02:48:10;;;;;;;5.67;3.45;;;;;;;19.75;86.14;100742.61;1680961;84;21027;-62
2022/08/08 02:51:02;;;;;;;4.72;3.30;;;;;;;19.75;85.86;100741.77;1687247;84;21080;-61
2022/08/08 02:54:19;;;;;;;5.08;3.62;;;;;;;19.72;85.72;100743.11;1624234;85;21141;-62
2022/08/08 02:57:17;;;;;;;7.03;3.55;;;;;;;19.71;85.68;100743.36;1687586;84;21544;-63
2022/08/08 03:00:32;;;;;;;5.53;3.55;;;;;;;19.70;85.78;100743.06;1694214;84;21008;-62
2022/08/08 03:03:44;;;;;;;7.00;3.70;;;;;;;19.67;85.83;100747.18;1684326;84;21042;-62
2022/08/08 03:06:29;;;;;;;6.00;3.83;;;;;;;19.69;85.82;100748.32;1689657;84;21083;-62
2022/08/08 03:09:50;;;;;;;7.50;3.80;;;;;;;19.69;85.86;100751.95;1692410;85;22143;-62
2022/08/08 03:12:43;;;;;;;6.40;3.55;;;;;;;19.69;85.73;100754.73;1688293;84;21035;-62
2022/08/08 03:15:55;;;;;;;6.70;3.70;;;;;;;19.64;85.69;100760.19;1690232;85;21013;-61
2022/08/08 03:18:56;;;;;;;6.92;3.70;;;;;;;19.63;85.89;100764.06;1690925;84;21578;-62
2022/08/08 03:21:26;;;;;;;5.25;3.87;;;;;;;19.63;85.92;100765.45;1693089;84;21466;-63
2022/08/08 03:23:57;;;;;;;6.22;3.90;;;;;;;19.61;85.71;100762.92;1689388;84;21096;-62
2022/08/08 03:26:32;;;;;;;6.80;4.03;;;;;;;19.59;85.97;100765.66;1691656;84;21031;-62
2022/08/08 03:29:07;;;;;;;6.85;4.05;;;;;;;19.59;86.07;100765.66;1690946;85;21545;-62
2022/08/08 03:34:29;;;;;;;7.12;4.78;;;;;;;19.58;86.32;100764.81;1665408;85;21013;-62
2022/08/08 03:37:00;;;;;;;6.15;4.80;;;;;;;19.58;86.29;100770.91;1693176;84;21035;-62
2022/08/08 03:39:32;;;;;;;10.75;4.62;;;;;;;19.58;86.32;100768.14;1690453;84;21051;-63
2022/08/08 03:42:03;;;;;;;9.20;4.80;;;;;;;19.58;86.32;100774.54;1665230;83;21071;-61
2022/08/08 03:44:37;;;;;;;7.12;4.45;;;;;;;19.60;86.42;100771.51;1655455;85;21093;-62
2022/08/08 03:47:09;;;;;;;8.33;4.97;;;;;;;19.58;86.38;100769.53;1682738;85;21047;-63
2022/08/08 03:49:40;;;;;;;6.95;4.95;;;;;;;19.54;86.55;100769.72;1706227;83;21064;-63
2022/08/08 03:52:12;;;;;;;9.13;5.00;;;;;;;19.52;86.80;100770.48;1703123;83;21076;-62
2022/08/08 03:54:44;;;;;;;8.23;4.42;;;;;;;19.51;86.87;100771.03;1669349;83;21100;-62
2022/08/08 03:57:17;;;;;;;8.63;4.78;;;;;;;19.52;87.00;100773.27;1676653;84;21064;-62
2022/08/08 03:59:49;;;;;;;7.90;4.83;;;;;;;19.49;87.07;100770.95;1696071;83;21032;-63
2022/08/08 04:02:20;;;;;;;7.75;5.40;;;;;;;19.51;87.29;100777.98;1702944;83;21091;-63
2022/08/08 04:04:51;;;;;;;8.55;5.03;;;;;;;19.52;87.21;100782.48;1691793;83;21068;-63
2022/08/08 04:07:22;;;;;;;7.72;4.95;;;;;;;19.52;87.23;100781.61;1680517;84;21144;-63
2022/08/08 04:09:57;;;;;;;9.50;5.05;;;;;;;19.50;87.24;100777.65;1664517;83;21047;-63
2022/08/08 04:12:29;;;;;;;7.50;5.20;;;;;;;19.50;87.27;100788.77;1715346;83;21527;-63
2022/08/08 04:15:01;;;;;;;6.80;5.17;;;;;;;19.52;87.33;100789.94;1710660;83;21545;-63
2022/08/08 04:17:32;;;;;;;8.45;5.00;;;;;;;19.47;87.13;100792.05;1716115;83;21055;-64
2022/08/08 04:20:04;;;;;;;7.87;4.95;;;;;;;19.42;87.38;100791.94;1702637;83;21469;-63
2022/08/08 04:22:35;;;;;;;7.90;4.80;;;;;;;19.42;87.52;100792.48;1707225;83;21076;-63
2022/08/08 04:25:08;;;;;;;13.70;5.20;;;;;;;19.39;87.63;100790.20;1705212;83;21119;-63
2022/08/08 04:27:39;;;;;;;8.23;5.03;;;;;;;19.40;87.88;100786.33;1705919;83;21098;-63
2022/08/08 04:30:11;;;;;;;7.67;4.62;;;;;;;19.43;87.98;100790.00;1700350;83;21053;-62
2022/08/08 04:32:44;;;;;;;11.80;7.65;;;;;;;19.46;87.86;100790.90;1702217;83;21080;-63
2022/08/08 04:35:15;;;;;;;9.23;5.35;;;;;;;19.45;87.75;100788.66;1709396;83;21074;-62
2022/08/08 04:37:46;;;;;;;9.25;5.67;;;;;;;19.45;87.87;100798.39;1709432;83;20999;-63
2022/08/08 04:40:19;;;;;;;7.67;4.90;;;;;;;19.49;87.85;100795.42;1709499;83;21011;-64
2022/08/08 04:42:55;;;;;;;10.70;5.05;;;;;;;19.52;87.63;100799.67;1700989;83;21056;-63
2022/08/08 04:45:28;;;;;;;8.63;4.75;;;;;;;19.51;87.58;100800.77;1703506;83;21015;-62
2022/08/08 04:47:58;;;;;;;10.85;5.25;;;;;;;19.51;87.56;100793.27;1706173;83;21520;-64
2022/08/08 04:50:31;;;;;;;8.78;5.25;;;;;;;19.51;87.70;100798.83;1705558;83;21024;-62
2022/08/08 04:53:03;;;;;;;9.68;5.30;;;;;;;19.51;87.77;100797.44;1705081;83;21016;-63
2022/08/08 04:55:34;;;;;;;10.63;5.47;;;;;;;19.52;87.82;100799.16;1718647;83;21086;-62
2022/08/08 04:58:06;;;;;;;7.80;5.00;;;;;;;19.56;87.75;100801.74;1694819;83;21064;-63
2022/08/08 05:00:37;;;;;;;9.35;4.80;;;;;;;19.59;87.64;100804.57;1716582;83;21051;-62
2022/08/08 05:03:07;;;;;;;10.95;5.17;;;;;;;19.62;87.55;100794.34;1706077;83;21063;-63
2022/08/08 05:05:39;;;;;;;6.50;5.08;;;;;;;19.65;87.58;100795.78;1694339;83;21012;-64
2022/08/08 05:08:12;;;;;;;8.45;4.80;;;;;;;19.69;87.52;100795.59;1694636;83;21068;-62
2022/08/08 05:10:41;;;;;;;6.62;4.62;;;;;;;19.73;87.27;100806.52;1682140;84;21338;-62
2022/08/08 05:13:14;;;;;;;11.00;5.30;;;;;;;19.75;87.09;100798.77;1665339;85;21156;-63
2022/08/08 05:15:45;;;;;;;8.43;4.60;;;;;;;19.77;86.91;100795.19;1674559;85;21051;-63
2022/08/08 05:18:16;;;;;;;8.98;5.03;;;;;;;19.79;86.83;100798.02;1673937;84;21110;-62
2022/08/08 05:20:46;;;;;;;7.65;5.30;;;;;;;19.80;86.80;100804.42;1678882;85;21466;-66
2022/08/08 05:23:18;;;;;;;9.23;4.90;;;;;;;19.81;86.66;100810.28;1723026;83;21023;-63
2022/08/08 05:25:50;;;;;;;6.45;4.70;;;;;;;19.80;86.68;100812.22;1711831;83;21026;-63
2022/08/08 05:28:19;;;;;;;10.00;5.17;;;;;;;19.82;86.63;100822.55;1681125;83;21113;-62
2022/08/08 05:30:50;;;;;;;5.78;4.30;;;;;;;19.84;86.32;100820.36;1720769;83;21023;-64
2022/08/08 05:33:21;;;;;;;11.20;5.12;;;;;;;19.83;86.18;100820.06;1686957;83;21043;-63
2022/08/08 05:35:52;;;;;;;12.40;5.28;;;;;;;19.82;86.33;100822.55;1723021;83;21043;-62
2022/08/08 05:38:22;;;;;;;15.63;6.33;;;;;;;19.87;86.26;100828.20;1683108;83;21064;-63
2022/08/08 05:40:57;;;;;;;8.43;5.40;;;;;;;19.87;85.96;100830.15;1703305;83;21029;-63
2022/08/08 05:43:31;;;;;;;7.08;4.95;;;;;;;19.87;86.01;100824.58;1665189;83;21566;-63
2022/08/08 05:46:04;;;;;;;11.03;6.40;;;;;;;19.92;85.93;100831.63;1713424;82;21056;-65
2022/08/08 05:48:36;;;;;;;9.05;4.75;;;;;;;19.95;85.66;100838.09;1721217;82;21061;-63
2022/08/08 05:51:08;;;;;;;7.03;4.62;;;;;;;19.94;85.50;100840.03;1693955;82;21038;-63
2022/08/08 05:53:39;;;;;;;6.05;4.40;;;;;;;19.95;85.45;100841.72;1725303;82;21099;-63
2022/08/08 05:56:11;;;;;;;9.38;6.45;;;;;;;19.96;85.16;100838.39;1711237;82;21048;-62
2022/08/08 05:58:43;;;;;;;8.28;5.33;;;;;;;19.95;85.36;100840.33;1715427;82;21039;-63
2022/08/08 06:01:14;;;;;;;10.72;5.72;;;;;;;20.00;85.47;100836.80;1702878;82;21075;-65
2022/08/08 06:03:46;;;;;;;9.08;5.65;;;;;;;19.99;85.37;100838.44;1710574;82;21052;-65
2022/08/08 06:06:18;;;;;;;8.68;5.42;;;;;;;20.00;85.44;100838.73;1703313;82;20992;-63
2022/08/08 06:08:52;;;;;;;10.88;5.60;;;;;;;20.03;85.46;100839.63;1719775;83;21038;-63
2022/08/08 06:11:25;;;;;;;11.20;7.05;;;;;;;20.01;85.33;100844.05;1718345;82;21079;-64
2022/08/08 06:13:57;;;;;;;8.28;5.62;;;;;;;20.00;85.42;100844.30;1685631;84;21032;-64
2022/08/08 06:16:26;;;;;;;13.13;6.25;;;;;;;20.04;85.37;100842.70;1704184;82;21008;-63
2022/08/08 06:19:06;;;;;;;11.63;5.83;;;;;;;20.04;85.35;100842.16;1714510;83;20973;-63
2022/08/08 06:21:39;;;;;;;11.70;6.58;;;;;;;20.05;85.39;100841.06;1719443;83;21062;-62
2022/08/08 06:24:11;;;;;;;10.82;6.25;;;;;;;20.06;85.22;100841.91;1717618;82;21030;-62
2022/08/08 06:26:50;;;;;;;14.10;7.08;;;;;;;20.05;85.19;100841.61;1713278;83;21040;-64
2022/08/08 06:29:34;;;;;;;9.70;6.50;;;;;;;20.03;85.04;100842.41;1718364;82;20988;-64
2022/08/08 06:32:06;;;;;;;13.98;7.37;;;;;;;20.02;85.28;100844.34;1659428;86;21091;-63
2022/08/08 06:34:38;;;;;;;16.37;8.30;;;;;;;20.02;85.25;100845.73;1671661;86;21162;-63
2022/08/08 06:37:11;;;;;;;12.05;6.83;;;;;;;20.03;85.17;100841.02;1656119;85;21047;-63
2022/08/08 06:39:43;;;;;;;10.85;7.08;;;;;;;20.04;85.18;100846.87;1684112;84;21360;-64
2022/08/08 06:42:15;;;;;;;12.73;6.80;;;;;;;20.04;85.07;100849.66;1668590;84;21448;-63
2022/08/08 06:44:48;;;;;;;12.23;7.00;;;;;;;20.04;85.01;100849.11;1685113;84;21076;-63
2022/08/08 06:47:18;;;;;;;13.38;7.15;;;;;;;20.05;85.08;100851.34;1641686;86;21090;-64
2022/08/08 06:49:50;;;;;;;12.13;7.12;;;;;;;20.08;85.11;100851.70;1666591;84;21038;-61
2022/08/08 06:52:22;;;;;;;10.45;6.50;;;;;;;20.09;84.95;100858.10;1679166;84;21091;-64
2022/08/08 06:54:54;;;;;;;8.93;6.22;;;;;;;20.11;84.77;100864.27;1662023;86;21089;-63
2022/08/08 06:57:25;;;;;;;11.70;6.67;;;;;;;20.08;84.82;100867.55;1662319;86;21063;-63
2022/08/08 07:03:49;;;;;;;11.35;6.42;;;;;;;20.05;85.04;100870.83;1662312;86;21074;-62
2022/08/08 07:06:22;;;;;;;15.05;7.15;;;;;;;20.02;85.29;100875.49;1659734;85;21055;-63
2022/08/08 07:09:00;;;;;;;15.98;7.08;;;;;;;20.03;85.36;100875.79;1669767;85;21111;-63
2022/08/08 07:11:31;;;;;;;9.38;7.35;;;;;;;20.06;85.47;100870.58;1649041;86;21424;-64
2022/08/08 07:14:03;;;;;;;8.33;6.83;;;;;;;20.08;85.48;100871.17;1658799;85;21479;-63
2022/08/08 07:16:54;;;;;;;11.60;6.72;;;;;;;20.12;85.35;100872.36;1676663;85;21089;-63
2022/08/08 07:19:43;;;;;;;9.45;6.22;;;;;;;20.16;85.18;100877.75;1696157;83;21016;-63
2022/08/08 07:22:21;;;;;;;9.88;6.80;;;;;;;20.13;84.83;100874.05;1713581;83;21074;-63
2022/08/08 07:25:01;;;;;;;12.80;7.00;;;;;;;20.12;84.87;100878.47;1710221;83;21473;-63
2022/08/08 07:27:44;;;;;;;12.65;7.28;;;;;;;20.15;84.98;100876.58;1704378;83;21471;-64
2022/08/08 07:30:15;;;;;;;10.88;6.50;;;;;;;20.19;85.05;100883.37;1677876;85;21136;-64
2022/08/08 07:32:48;;;;;;;8.00;6.15;;;;;;;20.24;85.04;100883.46;1679368;85;21471;-64
2022/08/08 07:35:18;;;;;;;11.85;6.35;;;;;;;20.33;84.88;100889.47;1679798;85;20995;-64
2022/08/08 07:37:50;;;;;;;12.50;7.15;;;;;;;20.38;84.26;100893.19;1680992;85;21054;-63
2022/08/08 07:40:25;;;;;;;10.88;7.05;;;;;;;20.41;83.97;100886.31;1667695;85;21075;-63
2022/08/08 07:42:57;;;;;;;10.40;6.28;;;;;;;20.45;83.96;100881.37;1680617;85;21057;-64
2022/08/08 07:45:28;;;;;;;8.40;4.80;;;;;;;20.55;83.92;100880.71;1672614;85;21047;-64
2022/08/08 07:48:00;;;;;;;6.78;4.70;;;;;;;20.68;83.94;100883.71;1702640;83;21071;-63
2022/08/08 07:50:33;;;;;;;6.78;5.30;;;;;;;20.85;83.40;100881.25;1675167;83;21074;-63
2022/08/08 07:53:20;;;;;;;9.05;5.90;;;;;;;20.99;82.78;100883.14;1718114;83;21463;-64
2022/08/08 07:55:52;;;;;;;10.40;5.78;;;;;;;21.08;81.47;100883.55;1725570;82;21466;-63
2022/08/08 07:58:41;;;;;;;9.50;4.78;;;;;;;21.12;81.10;100886.97;1717681;83;21105;-65
2022/08/08 08:01:16;;;;;;;10.72;5.78;;;;;;;21.20;80.65;100889.87;1728252;83;21094;-64
2022/08/08 08:03:54;;;;;;;8.90;5.45;;;;;;;21.20;80.04;100885.14;1714101;83;21109;-63
2022/08/08 08:06:26;;;;;;;6.47;4.92;;;;;;;21.27;80.11;100879.96;1712833;83;21051;-63
2022/08/08 08:09:22;;;;;;;7.70;4.70;;;;;;;21.34;79.48;100880.63;1719203;83;21070;-64
2022/08/08 08:11:54;;;;;;;6.22;4.15;;;;;;;21.40;79.56;100887.41;1716607;83;21090;-65
2022/08/08 08:14:43;;;;;;;10.30;5.72;;;;;;;21.50;79.30;100882.55;1707773;83;21067;-65
2022/08/08 08:17:17;;;;;;;7.65;4.50;;;;;;;21.55;78.71;100878.43;1716223;83;21077;-64
2022/08/08 08:19:49;;;;;;;6.25;4.42;;;;;;;21.60;78.39;100891.60;1706801;83;20995;-63
2022/08/08 08:22:20;;;;;;;4.87;3.92;;;;;;;21.64;77.78;100883.84;1702849;83;21027;-66
2022/08/08 08:24:54;;;;;;;6.22;4.37;;;;;;;21.69;77.77;100885.31;1709744;83;20995;-65
2022/08/08 08:27:26;;;;;;;7.35;4.20;;;;;;;21.75;77.53;100884.27;1717800;83;21015;-64
2022/08/08 08:29:58;;;;;;;6.03;4.42;;;;;;;21.82;76.83;100889.10;1711098;83;21041;-65
2022/08/08 08:32:31;;;;;;;10.38;5.17;;;;;;;21.89;76.75;100890.84;1671200;84;21039;-65
2022/08/08 08:35:08;;;;;;;13.65;6.47;;;;;;;21.90;76.79;100895.33;1681154;85;21069;-66
2022/08/08 08:37:39;;;;;;;20.37;11.18;;;;;;;21.91;76.74;100891.44;1682741;85;21061;-66
2022/08/08 08:40:12;;;;;;;11.20;6.12;;;;;;;21.91;76.59;100888.64;1689895;82;21082;-67
2022/08/08 08:42:42;;;;;;;8.50;5.85;;;;;;;21.85;76.53;100894.71;1728082;83;21121;-66
2022/08/08 08:45:14;;;;;;;11.30;6.20;;;;;;;21.77;76.85;100893.77;1720148;83;21112;-65
2022/08/08 08:47:48;;;;;;;9.15;6.20;;;;;;;21.68;77.21;100890.59;1705938;83;21184;-66
2022/08/08 08:50:21;;;;;;;9.33;5.28;;;;;;;21.61;77.27;100893.28;1705342;83;21074;-65
2022/08/08 08:52:53;;;;;;;7.55;4.90;;;;;;;21.56;77.65;100896.01;1698426;83;21118;-65
2022/08/08 08:55:24;;;;;;;8.28;5.60;;;;;;;21.56;77.85;100895.45;1709905;83;21036;-66
2022/08/08 08:57:56;;;;;;;8.10;5.10;;;;;;;21.56;77.53;100896.85;1668595;83;21129;-66
2022/08/08 09:00:27;;;;;;;15.13;5.60;;;;;;;21.58;77.79;100896.59;1726001;83;21066;-66
2022/08/08 09:02:59;;;;;;;10.90;5.67;;;;;;;21.61;77.76;100896.92;1680795;83;21013;-65
2022/08/08 09:05:29;;;;;;;7.37;5.20;;;;;;;21.65;77.72;100902.82;1700386;83;21518;-70
2022/08/08 09:08:02;;;;;;;11.35;5.53;;;;;;;21.69;77.67;100896.47;1700414;83;21051;-68
2022/08/08 09:10:37;;;;;;;6.62;5.03;;;;;;;21.69;77.61;100895.08;1708907;83;21050;-68
2022/08/08 09:13:06;;;;;;;7.37;4.60;;;;;;;21.73;77.77;100893.45;1716825;83;21054;-69
2022/08/08 09:15:37;;;;;;;11.70;6.47;;;;;;;21.81;77.32;100889.36;1695327;83;21038;-70
2022/08/08 09:18:09;;;;;;;7.05;5.58;;;;;;;21.82;77.23;100888.25;1680913;85;21055;-68
2022/08/08 09:20:43;;;;;;;9.85;5.40;;;;;;;21.89;76.49;100895.88;1680906;85;21048;-71
2022/08/08 09:23:15;;;;;;;9.43;5.47;;;;;;;21.90;76.76;100894.77;1668960;85;21116;-71
2022/08/08 09:25:58;;;;;;;5.97;4.30;;;;;;;22.00;76.97;100892.66;1667403;85;21087;-67
2022/08/08 09:28:30;;;;;;;6.20;4.58;;;;;;;22.13;76.36;100892.31;1661980;85;21568;-70
2022/08/08 09:31:06;;;;;;;6.45;5.00;;;;;;;22.18;75.53;100886.78;1679825;85;21121;-70
2022/08/08 09:33:38;;;;;;;8.45;5.80;;;;;;;22.21;75.34;100886.81;1679426;85;21054;-73
2022/08/08 09:36:13;;;;;;;8.20;5.15;;;;;;;22.27;75.55;100891.34;1666509;85;21038;-71
2022/08/08 09:38:54;;;;;;;14.23;6.10;;;;;;;22.31;75.28;100891.95;1678828;85;21106;-71
2022/08/08 09:41:38;;;;;;;9.93;6.15;;;;;;;22.32;75.24;100888.59;1672359;85;21029;-68
2022/08/08 09:44:19;;;;;;;9.48;6.35;;;;;;;22.35;75.10;100890.31;1677534;85;21097;-71
2022/08/08 09:46:50;;;;;;;7.72;6.67;;;;;;;22.37;74.60;100894.23;1678429;84;21538;-70
2022/08/08 09:49:22;;;;;;;10.35;6.33;;;;;;;22.31;74.00;100885.52;1677914;85;21042;-70
2022/08/08 09:51:55;;;;;;;11.03;5.87;;;;;;;22.23;74.68;100891.02;1659610;85;21078;-71
2022/08/08 09:54:32;;;;;;;9.88;6.15;;;;;;;22.23;74.91;100888.23;1678935;85;21033;-70
2022/08/08 09:57:03;;;;;;;8.35;6.10;;;;;;;22.23;74.92;100891.02;1681083;85;21023;-67
2022/08/08 09:59:32;;;;;;;9.18;7.10;;;;;;;22.25;75.18;100894.39;1681683;85;21086;-67
2022/08/08 10:02:05;;;;;;;12.55;7.05;;;;;;;22.23;74.80;100902.19;1677991;85;21082;-70
2022/08/08 10:04:38;;;;;;;10.98;6.97;;;;;;;22.17;75.00;100903.24;1670487;84;21093;-67
2022/08/08 10:07:13;;;;;;;8.28;6.62;;;;;;;22.19;75.40;100909.41;1669227;85;21031;-68
2022/08/08 10:09:50;;;;;;;10.88;6.85;;;;;;;22.19;75.36;100907.17;1679326;85;21103;-67
2022/08/08 10:12:36;;;;;;;9.55;7.62;;;;;;;22.22;75.03;100908.88;1678916;85;21489;-68
2022/08/08 10:15:12;;;;;;;10.58;7.37;;;;;;;22.18;75.42;100910.51;1673558;85;21093;-67
2022/08/08 10:17:46;;;;;;;11.28;7.40;;;;;;;22.21;74.53;100912.77;1670065;85;21463;-66
2022/08/08 10:20:17;;;;;;;13.88;6.37;;;;;;;22.18;74.74;100906.32;1677608;85;21052;-69
2022/08/08 10:22:59;;;;;;;10.65;6.78;;;;;;;22.19;74.64;100901.58;1669725;85;21057;-71
2022/08/08 10:25:32;;;;;;;8.80;6.95;;;;;;;22.19;74.71;100908.56;1664166;85;20984;-71
2022/08/08 10:28:07;;;;;;;8.95;6.70;;;;;;;22.23;74.75;100906.38;1677434;85;21063;-68
2022/08/08 10:30:39;;;;;;;8.80;6.35;;;;;;;22.31;74.54;100900.88;1680029;85;21016;-67
2022/08/08 10:33:10;;;;;;;9.15;6.67;;;;;;;22.36;74.08;100907.35;1652744;86;21067;-68
2022/08/08 10:35:41;;;;;;;10.88;6.72;;;;;;;22.41;73.88;100907.41;1673392;85;21023;-67
2022/08/08 10:38:15;;;;;;;10.95;6.62;;;;;;;22.44;73.72;100905.48;1721491;83;21086;-68
2022/08/08 10:40:51;;;;;;;10.63;6.78;;;;;;;22.50;73.68;100908.33;1718822;83;21023;-67
2022/08/08 10:43:21;;;;;;;9.05;6.65;;;;;;;22.51;73.71;100908.61;1713418;83;21517;-69
2022/08/08 10:45:51;;;;;;;8.08;6.35;;;;;;;22.49;73.54;100909.44;1718475;83;21114;-67
2022/08/08 10:48:23;;;;;;;19.75;14.73;;;;;;;22.46;73.29;100904.66;1705697;83;21084;-69
2022/08/08 10:50:57;;;;;;;11.10;6.70;;;;;;;22.44;73.51;100894.86;1681815;83;21076;-69
2022/08/08 10:53:37;;;;;;;9.33;6.33;;;;;;;22.45;73.61;100904.38;1699622;83;21064;-70
2022/08/08 10:56:09;;;;;;;8.95;7.00;;;;;;;22.48;73.37;100904.95;1697674;83;21060;-69
2022/08/08 10:58:39;;;;;;;12.45;6.17;;;;;;;22.44;73.29;100901.30;1702094;83;21052;-68
2022/08/08 11:01:11;;;;;;;8.65;6.53;;;;;;;22.45;73.41;100897.39;1708385;83;21084;-66
2022/08/08 11:03:44;;;;;;;10.00;6.62;;;;;;;22.44;73.12;100894.86;1711830;83;21053;-67
2022/08/08 11:06:15;;;;;;;8.88;5.55;;;;;;;22.42;73.09;100895.13;1704829;83;21035;-68
2022/08/08 11:08:45;;;;;;;11.35;6.40;;;;;;;22.45;73.16;100887.62;1701941;83;21485;-65
2022/08/08 11:11:17;;;;;;;12.85;7.50;;;;;;;22.47;73.33;100895.73;1704518;83;21092;-69
2022/08/08 11:13:49;;;;;;;12.23;6.45;;;;;;;22.50;73.57;100892.41;1671472;83;21019;-68
2022/08/08 11:16:23;;;;;;;11.78;7.35;;;;;;;22.49;73.15;100891.28;1674320;85;21100;-71
2022/08/08 11:18:54;;;;;;;10.50;6.00;;;;;;;22.50;73.13;100888.77;1698123;83;21090;-71
2022/08/08 11:21:24;;;;;;;7.80;5.97;;;;;;;22.53;72.87;100884.05;1664344;85;21058;-70
2022/08/08 11:23:58;;;;;;;11.55;6.58;;;;;;;22.56;72.95;100884.37;1676885;85;21056;-68
2022/08/08 11:26:30;;;;;;;7.53;6.08;;;;;;;22.62;72.81;100895.03;1684316;85;21651;-74
2022/08/08 11:29:02;;;;;;;10.65;6.47;;;;;;;22.64;72.79;100888.07;1674942;85;21076;-71
2022/08/08 11:31:41;;;;;;;9.18;6.30;;;;;;;22.67;72.74;100886.14;1660946;85;21075;-68
2022/08/08 11:34:12;;;;;;;11.50;6.53;;;;;;;22.69;72.66;100888.67;1663369;85;21465;-71
2022/08/08 11:36:43;;;;;;;9.88;6.25;;;;;;;22.70;72.00;100887.56;1683700;85;20999;-70
2022/08/08 11:39:15;;;;;;;9.30;6.47;;;;;;;22.67;71.88;100884.75;1685724;85;21072;-67
2022/08/08 11:41:46;;;;;;;11.65;6.35;;;;;;;22.66;71.62;100875.23;1663843;85;21042;-70
2022/08/08 11:44:18;;;;;;;10.00;6.30;;;;;;;22.62;71.94;100876.88;1664544;85;21058;-69
2022/08/08 11:46:56;;;;;;;6.53;5.55;;;;;;;22.63;71.94;100876.61;1680832;85;21091;-69
2022/08/08 11:49:22;;;;;;;9.10;5.87;;;;;;;22.69;72.19;100866.31;1708646;83;21025;-71
2022/08/08 11:51:52;;;;;;;7.30;6.00;;;;;;;22.80;71.91;100866.75;1680685;83;21122;-69
2022/08/08 11:54:34;;;;;;;8.75;5.95;;;;;;;22.92;71.56;100872.15;1715790;83;21477;-69
2022/08/08 11:57:22;;;;;;;9.35;5.92;;;;;;;23.01;71.25;100867.74;1667699;86;21663;-70
2022/08/08 12:00:02;;;;;;;8.53;6.50;;;;;;;23.06;70.62;100868.63;1704017;83;21111;-68
2022/08/08 12:02:49;;;;;;;8.25;5.58;;;;;;;23.10;70.61;100866.12;1707651;83;21116;-69
2022/08/08 12:05:37;;;;;;;8.63;5.75;;;;;;;23.16;69.99;100873.44;1710530;83;21093;-71
2022/08/08 12:08:09;;;;;;;8.15;6.08;;;;;;;23.17;69.57;100870.09;1703856;83;21092;-69
2022/08/08 12:10:50;;;;;;;10.38;6.33;;;;;;;23.11;69.47;100869.77;1713368;83;21067;-69
2022/08/08 12:13:24;;;;;;;8.03;6.17;;;;;;;23.13;69.47;100867.55;1706073;83;21118;-71
2022/08/08 12:16:11;;;;;;;9.40;6.10;;;;;;;23.13;69.17;100868.94;1706565;83;21436;-69
2022/08/08 12:18:51;;;;;;;8.58;6.30;;;;;;;23.12;69.37;100859.72;1697155;83;21034;-69
2022/08/08 12:21:32;;;;;;;8.48;5.92;;;;;;;23.14;69.58;100865.88;1713416;83;21051;-70
2022/08/08 12:24:12;;;;;;;7.90;5.92;;;;;;;23.21;69.71;100864.24;1710079;83;21060;-69
2022/08/08 12:26:47;;;;;;;8.40;5.97;;;;;;;23.24;69.67;100863.14;1705597;83;21098;-67